Time;durP1;ratioP1;P1;durP2;ratioP2;P2;SDS_P1;SDS_P2;PMS_P1;PMS_P2;Temp;Humidity;BMP_temperature;BMP_pressure;BME280_temperature;BME280_humidity;BME280_pressure;Samples;Min_cycle;Max_cycle;Signal;HPM_P1;HPM_P2
2023/05/07 00:03:42;;;;;;;0.30;0.30;;;;;;;18.14;57.25;96480.66;10385881;28;20453;-30
2023/05/07 00:08:43;;;;;;;0.40;0.40;;;;;;;18.12;57.28;96480.66;10385669;28;20049;-31
2023/05/07 00:13:43;;;;;;;0.20;0.20;;;;;;;18.10;57.20;96476.44;10390982;28;20030;-31
2023/05/07 00:18:44;;;;;;;0.30;0.23;;;;;;;18.08;57.20;96471.38;10386134;28;20485;-30
2023/05/07 00:23:44;;;;;;;0.30;0.30;;;;;;;18.08;57.04;96475.63;10369311;28;20038;-29
2023/05/07 00:28:44;;;;;;;0.43;0.40;;;;;;;18.08;57.07;96470.56;10382122;28;20033;-29
2023/05/07 00:33:45;;;;;;;0.47;0.40;;;;;;;18.07;56.92;96466.34;10375401;28;20293;-30
2023/05/07 00:38:45;;;;;;;0.30;0.30;;;;;;;18.19;59.38;96468.81;10382292;28;20467;-30
2023/05/07 00:43:45;;;;;;;0.30;0.30;;;;;;;18.36;60.54;96472.19;10382704;28;20425;-30
2023/05/07 00:48:46;;;;;;;0.40;0.40;;;;;;;18.42;59.09;96474.69;10393503;28;20448;-30
2023/05/07 00:53:47;;;;;;;0.30;0.20;;;;;;;18.31;59.05;96473.88;10396148;28;20490;-30
2023/05/07 00:58:48;;;;;;;0.52;0.35;;;;;;;18.22;58.66;96461.19;10392078;28;20036;-29
2023/05/07 01:03:49;;;;;;;0.52;0.32;;;;;;;18.16;57.59;96467.13;10378296;28;20441;-30
2023/05/07 01:08:57;;;;;;;0.30;0.30;;;;;;;18.14;57.38;96457.84;10384481;28;20038;-30
2023/05/07 01:13:59;;;;;;;0.20;0.20;;;;;;;18.10;57.25;96456.19;10390259;28;20493;-30
2023/05/07 01:19:02;;;;;;;0.38;0.38;;;;;;;18.09;57.18;96457.84;10375742;28;20036;-30
2023/05/07 01:24:04;;;;;;;0.47;0.47;;;;;;;18.08;57.06;96452.81;10374475;28;20076;-30
2023/05/07 01:29:06;;;;;;;0.20;0.20;;;;;;;18.07;57.07;96459.56;10390403;28;20033;-31
2023/05/07 01:34:09;;;;;;;0.50;0.50;;;;;;;18.06;56.96;96451.97;10381284;28;20382;-30
2023/05/07 01:39:10;;;;;;;0.40;0.35;;;;;;;18.06;56.95;96452.81;10376563;28;20484;-30
2023/05/07 01:44:13;;;;;;;0.55;0.30;;;;;;;18.29;59.66;96457.81;10398437;28;20083;-30
2023/05/07 01:49:14;;;;;;;0.70;0.47;;;;;;;18.40;62.20;96448.53;10388355;28;20486;-30
2023/05/07 01:54:15;;;;;;;0.55;0.43;;;;;;;18.36;58.77;96446.84;10398834;28;20428;-29
2023/05/07 01:59:16;;;;;;;0.40;0.40;;;;;;;18.25;59.28;96438.41;10404721;28;20037;-30
2023/05/07 02:04:16;;;;;;;0.40;0.40;;;;;;;18.19;58.13;96446.03;10383545;28;20029;-30
2023/05/07 02:09:17;;;;;;;0.40;0.40;;;;;;;18.16;57.58;96456.19;10396816;28;20034;-30
2023/05/07 02:14:20;;;;;;;0.30;0.30;;;;;;;18.12;57.30;96450.28;10372351;28;20041;-30
2023/05/07 02:19:21;;;;;;;0.50;0.50;;;;;;;18.10;57.27;96461.25;10383431;28;20021;-30
2023/05/07 02:24:21;;;;;;;0.15;0.15;;;;;;;18.08;56.88;96461.25;10389371;28;20033;-30
2023/05/07 02:29:22;;;;;;;0.40;0.33;;;;;;;18.07;57.05;96462.09;10396915;28;20069;-30
2023/05/07 02:34:23;;;;;;;0.30;0.30;;;;;;;18.06;57.00;96454.50;10382386;28;20036;-30
2023/05/07 02:39:23;;;;;;;0.50;0.20;;;;;;;18.05;56.96;96453.66;10380908;28;20527;-30
2023/05/07 02:44:24;;;;;;;0.50;0.50;;;;;;;18.16;59.10;96453.63;10393903;28;20029;-30
2023/05/07 02:49:25;;;;;;;0.50;0.35;;;;;;;18.35;60.09;96450.22;10379737;28;20096;-30
2023/05/07 02:54:26;;;;;;;0.52;0.40;;;;;;;18.39;59.62;96451.88;10382574;28;20083;-30
2023/05/07 02:59:27;;;;;;;0.30;0.30;;;;;;;18.30;58.86;96446.84;10385075;28;20058;-30
2023/05/07 03:04:27;;;;;;;0.30;0.30;;;;;;;18.20;58.60;96445.16;10384183;28;20033;-30
2023/05/07 03:09:28;;;;;;;0.40;0.40;;;;;;;18.16;57.80;96443.50;10375512;28;20041;-30
2023/05/07 03:14:28;;;;;;;0.45;0.32;;;;;;;18.13;57.49;96443.50;10394803;28;20029;-30
2023/05/07 03:19:30;;;;;;;0.23;0.23;;;;;;;18.10;57.44;96440.97;10392719;28;20128;-29
2023/05/07 03:24:30;;;;;;;0.40;0.40;;;;;;;18.08;56.69;96438.44;10379072;28;20694;-31
2023/05/07 03:29:31;;;;;;;0.38;0.38;;;;;;;18.08;57.04;96447.75;10389659;28;20082;-29
2023/05/07 03:34:31;;;;;;;0.30;0.30;;;;;;;18.07;56.81;96443.53;10384531;28;20040;-30
2023/05/07 03:39:32;;;;;;;0.40;0.40;;;;;;;18.06;56.65;96444.34;10389224;28;20108;-30
2023/05/07 03:44:32;;;;;;;0.30;0.30;;;;;;;18.06;56.79;96450.28;10374367;28;20030;-30
2023/05/07 03:49:34;;;;;;;0.30;0.30;;;;;;;18.25;59.33;96459.50;10388082;28;20531;-30
2023/05/07 03:54:35;;;;;;;0.40;0.40;;;;;;;18.38;61.97;96455.25;10378207;28;20036;-30
2023/05/07 03:59:36;;;;;;;0.30;0.30;;;;;;;18.34;58.99;96453.59;10383177;28;20026;-30
2023/05/07 04:04:36;;;;;;;0.40;0.40;;;;;;;18.24;59.18;96465.41;10378846;28;20040;-30
2023/05/07 04:09:37;;;;;;;0.22;0.22;;;;;;;18.18;58.61;96474.75;10386500;28;20481;-30
2023/05/07 04:14:37;;;;;;;0.40;0.40;;;;;;;18.14;57.79;96471.38;10388791;28;20144;-30
2023/05/07 04:19:38;;;;;;;0.40;0.30;;;;;;;18.12;57.41;96482.34;10382312;28;20029;-30
2023/05/07 04:24:39;;;;;;;0.68;0.55;;;;;;;18.09;57.22;96473.06;10381258;28;20672;-29
2023/05/07 04:29:42;;;;;;;0.30;0.28;;;;;;;18.08;56.99;96480.69;10368890;28;20034;-30
2023/05/07 04:34:44;;;;;;;0.30;0.30;;;;;;;18.07;56.56;96476.47;10375824;28;20081;-30
2023/05/07 04:39:45;;;;;;;0.40;0.40;;;;;;;18.06;56.66;96472.22;10397206;28;20037;-29
2023/05/07 04:44:46;;;;;;;0.30;0.30;;;;;;;18.04;56.83;96477.31;10383277;28;20034;-30
2023/05/07 04:49:46;;;;;;;0.32;0.32;;;;;;;18.09;59.12;96483.19;10377992;28;20449;-32
2023/05/07 04:54:47;;;;;;;0.40;0.40;;;;;;;18.30;60.20;96482.31;10376389;28;20466;-30
2023/05/07 04:59:48;;;;;;;0.30;0.30;;;;;;;18.37;60.08;96489.06;10371914;28;20044;-30
2023/05/07 05:04:49;;;;;;;0.50;0.30;;;;;;;18.31;58.72;96504.28;10393820;28;20460;-30
2023/05/07 05:09:49;;;;;;;0.73;0.38;;;;;;;18.21;59.18;96513.59;10372962;28;20299;-30
2023/05/07 05:14:50;;;;;;;0.55;0.30;;;;;;;18.15;58.52;96520.38;10385636;28;20405;-31
2023/05/07 05:19:51;;;;;;;0.45;0.45;;;;;;;18.12;57.63;96522.88;10379188;28;20031;-30
2023/05/07 05:24:52;;;;;;;0.30;0.30;;;;;;;18.10;57.48;96524.59;10376115;28;20029;-30
2023/05/07 05:29:52;;;;;;;0.40;0.30;;;;;;;18.08;57.29;96521.22;10382344;28;20037;-29
2023/05/07 05:34:53;;;;;;;0.30;0.30;;;;;;;18.06;56.92;96525.41;10412571;28;20037;-29
2023/05/07 05:39:54;;;;;;;0.32;0.28;;;;;;;18.05;56.89;96531.34;10380389;28;20311;-30
2023/05/07 05:44:55;;;;;;;0.63;0.50;;;;;;;18.06;56.74;96538.09;10376599;28;20049;-31
2023/05/07 05:49:56;;;;;;;0.28;0.28;;;;;;;18.04;56.51;96544.84;10379951;28;20037;-30
2023/05/07 05:54:56;;;;;;;0.30;0.30;;;;;;;18.19;59.24;96560.91;10370041;28;20482;-30
2023/05/07 05:59:57;;;;;;;0.30;0.30;;;;;;;18.33;60.09;96550.75;10373832;28;20026;-31
2023/05/07 06:04:58;;;;;;;0.30;0.30;;;;;;;18.35;59.30;96557.50;10374888;28;20037;-29
2023/05/07 06:09:59;;;;;;;0.70;0.45;;;;;;;18.25;59.04;96560.03;10371637;28;20091;-30
2023/05/07 06:14:59;;;;;;;0.30;0.30;;;;;;;18.13;58.63;96555.81;10381273;28;20033;-30
2023/05/07 06:20:00;;;;;;;0.30;0.30;;;;;;;18.12;58.08;96553.28;10377942;28;20461;-30
2023/05/07 06:25:01;;;;;;;0.30;0.30;;;;;;;18.09;57.52;96563.44;10374603;28;20033;-30
2023/05/07 06:30:02;;;;;;;0.20;0.20;;;;;;;18.08;57.28;96556.69;10389866;28;20030;-30
2023/05/07 06:35:03;;;;;;;0.30;0.30;;;;;;;18.06;57.13;96563.41;10408197;28;20401;-31
2023/05/07 06:40:05;;;;;;;0.50;0.50;;;;;;;18.06;56.81;96563.41;10392303;28;20287;-30
2023/05/07 06:45:08;;;;;;;0.20;0.20;;;;;;;18.04;56.66;96565.13;10381049;28;20037;-30
2023/05/07 06:50:09;;;;;;;0.35;0.30;;;;;;;18.03;56.59;96564.28;10391526;28;20550;-30
2023/05/07 06:55:11;;;;;;;0.20;0.20;;;;;;;18.04;57.01;96565.13;10395965;28;20041;-30
2023/05/07 07:00:12;;;;;;;0.20;0.20;;;;;;;18.25;59.01;96557.50;10387698;28;20167;-31
2023/05/07 07:05:21;;;;;;;0.52;0.40;;;;;;;18.35;58.88;96556.66;10387395;28;20026;-30
2023/05/07 07:10:24;;;;;;;0.30;0.30;;;;;;;18.27;58.37;96558.34;10385850;28;20030;-30
2023/05/07 07:15:26;;;;;;;0.30;0.30;;;;;;;18.17;58.44;96559.19;10379923;28;20025;-30
2023/05/07 07:20:28;;;;;;;0.85;0.30;;;;;;;18.13;57.92;96560.91;10387922;28;20092;-30
2023/05/07 07:25:30;;;;;;;0.30;0.30;;;;;;;18.09;57.40;96559.19;10382134;28;20104;-30
2023/05/07 07:30:30;;;;;;;0.30;0.30;;;;;;;18.08;57.02;96556.69;10386363;28;20030;-29
2023/05/07 07:35:32;;;;;;;0.30;0.30;;;;;;;18.07;56.94;96560.06;10394469;28;20064;-30
2023/05/07 07:40:34;;;;;;;0.40;0.40;;;;;;;18.04;56.65;96553.31;10397732;28;20037;-29
2023/05/07 07:45:35;;;;;;;0.32;0.30;;;;;;;18.04;56.83;96554.97;10410003;28;20064;-30
2023/05/07 07:50:35;;;;;;;0.45;0.40;;;;;;;18.04;56.91;96560.06;10393194;28;20049;-29
2023/05/07 07:55:40;;;;;;;0.20;0.20;;;;;;;18.02;56.41;96556.69;10387830;28;20030;-30
2023/05/07 08:00:41;;;;;;;0.40;0.40;;;;;;;18.19;59.67;96560.03;10385456;28;20034;-30
2023/05/07 08:05:43;;;;;;;0.38;0.38;;;;;;;18.34;61.90;96565.13;10383407;28;20034;-31
2023/05/07 08:10:44;;;;;;;0.25;0.22;;;;;;;18.35;58.00;96560.03;10369100;28;20091;-30
2023/05/07 08:15:52;;;;;;;0.35;0.35;;;;;;;18.24;58.50;96563.44;10368140;28;20072;-30
2023/05/07 08:20:53;;;;;;;0.30;0.30;;;;;;;18.16;58.07;96549.91;10380880;28;20033;-29
2023/05/07 08:25:57;;;;;;;0.50;0.50;;;;;;;18.11;57.17;96556.66;10386961;28;20116;-30
2023/05/07 08:31:00;;;;;;;0.70;0.25;;;;;;;18.08;57.21;96559.22;10375761;28;20405;-29
2023/05/07 08:36:01;;;;;;;0.30;0.30;;;;;;;18.06;56.96;96554.16;10386966;28;20026;-30
2023/05/07 08:41:02;;;;;;;0.30;0.30;;;;;;;18.06;56.66;96558.34;10386939;28;20030;-30
2023/05/07 08:46:05;;;;;;;0.20;0.20;;;;;;;18.00;56.81;96551.59;10383339;28;20025;-30
2023/05/07 08:51:16;;;;;;;0.28;0.28;;;;;;;18.02;56.74;96562.59;10389027;28;20092;-30
2023/05/07 08:56:17;;;;;;;0.30;0.30;;;;;;;18.02;56.62;96559.22;10393277;28;20308;-29
2023/05/07 09:01:18;;;;;;;0.20;0.20;;;;;;;18.05;58.35;96562.59;10376352;28;20117;-29
2023/05/07 09:06:22;;;;;;;0.20;0.20;;;;;;;18.27;62.18;96558.34;10385201;28;20029;-29
2023/05/07 09:11:23;;;;;;;0.38;0.38;;;;;;;18.35;59.15;96557.50;10386135;28;20045;-29
2023/05/07 09:16:26;;;;;;;0.20;0.20;;;;;;;18.29;57.79;96552.47;10382570;28;20382;-30
2023/05/07 09:21:27;;;;;;;0.30;0.30;;;;;;;18.19;58.30;96560.03;10398597;28;20145;-31
2023/05/07 09:26:31;;;;;;;0.45;0.40;;;;;;;18.15;57.91;96558.38;10374120;28;20030;-30
2023/05/07 09:31:37;;;;;;;0.15;0.15;;;;;;;18.10;57.05;96565.13;10366884;28;20403;-30
2023/05/07 09:36:37;;;;;;;0.20;0.20;;;;;;;18.09;57.09;96565.97;10398889;28;20405;-31
2023/05/07 09:41:45;;;;;;;0.50;0.20;;;;;;;18.07;56.87;96565.13;10375964;28;20044;-29
2023/05/07 09:46:54;;;;;;;0.30;0.30;;;;;;;18.02;56.70;96566.81;10392863;28;20040;-30
2023/05/07 09:52:01;;;;;;;0.52;0.45;;;;;;;18.05;56.95;96576.94;10382331;28;20075;-29
2023/05/07 09:57:05;;;;;;;0.35;0.35;;;;;;;18.04;56.87;96580.31;10377561;28;20498;-30
2023/05/07 10:02:10;;;;;;;0.30;0.30;;;;;;;18.04;57.00;96580.31;10381509;28;20456;-30
2023/05/07 10:07:17;;;;;;;0.20;0.20;;;;;;;18.18;59.12;96598.91;10412113;28;20495;-29
2023/05/07 10:12:19;;;;;;;0.20;0.20;;;;;;;18.30;60.34;96609.91;10381583;28;20033;-30
2023/05/07 10:17:20;;;;;;;0.20;0.20;;;;;;;18.36;57.75;96614.09;10373634;28;20047;-30
2023/05/07 10:22:22;;;;;;;0.30;0.30;;;;;;;18.24;58.65;96619.16;10376481;28;20022;-30
2023/05/07 10:27:24;;;;;;;0.30;0.28;;;;;;;18.17;57.99;96637.75;10383550;28;20497;-29
2023/05/07 10:32:40;;;;;;;0.30;0.30;;;;;;;18.10;57.48;96646.19;10387896;28;20512;-30
2023/05/07 10:37:44;;;;;;;0.20;0.20;;;;;;;18.09;57.10;96654.63;10373338;28;20038;-31
2023/05/07 10:42:54;;;;;;;0.10;0.10;;;;;;;18.05;57.00;96637.72;10385845;28;20073;-30
2023/05/07 10:48:10;;;;;;;0.20;0.20;;;;;;;18.05;56.68;96645.31;10376520;28;20125;-30
2023/05/07 10:53:17;;;;;;;0.30;0.30;;;;;;;18.01;56.63;96646.19;10385679;28;20032;-29
2023/05/07 10:58:21;;;;;;;0.28;0.28;;;;;;;18.02;56.58;96652.94;10391792;28;20041;-31
2023/05/07 11:03:22;;;;;;;0.20;0.20;;;;;;;18.01;56.56;96636.88;10398119;28;20040;-30
2023/05/07 11:08:55;;;;;;;0.30;0.20;;;;;;;18.09;58.98;96644.50;10379465;28;20060;-30
2023/05/07 11:13:59;;;;;;;0.25;0.25;;;;;;;18.28;58.89;96625.91;10404205;28;20025;-29
2023/05/07 11:19:08;;;;;;;0.22;0.22;;;;;;;18.34;57.96;96633.56;10383068;28;20076;-29
2023/05/07 11:24:16;;;;;;;0.32;0.32;;;;;;;18.24;58.30;96641.97;10377358;28;20029;-30
2023/05/07 11:29:23;;;;;;;0.30;0.30;;;;;;;18.16;57.80;96636.06;10387838;28;20033;-30
2023/05/07 11:34:29;;;;;;;0.20;0.20;;;;;;;18.11;57.22;96647.88;10378247;28;20030;-30
2023/05/07 11:39:33;;;;;;;0.28;0.22;;;;;;;18.08;56.96;96647.88;10379894;28;20076;-30
2023/05/07 11:44:45;;;;;;;0.47;0.30;;;;;;;18.07;56.75;96651.28;10370935;28;20490;-30
2023/05/07 11:49:48;;;;;;;0.30;0.30;;;;;;;18.05;56.82;96645.31;10393282;28;20044;-30
2023/05/07 11:54:56;;;;;;;0.32;0.32;;;;;;;18.03;56.62;96647.88;10376525;28;20485;-31
2023/05/07 11:59:58;;;;;;;0.40;0.40;;;;;;;18.04;56.51;96651.25;10383957;28;20034;-30
2023/05/07 12:05:00;;;;;;;0.30;0.20;;;;;;;18.02;56.47;96640.28;10384941;28;20506;-30
2023/05/07 12:10:06;;;;;;;0.30;0.30;;;;;;;18.03;56.87;96639.44;10382430;28;20033;-30
2023/05/07 12:15:06;;;;;;;0.30;0.30;;;;;;;18.25;58.51;96647.03;10377894;28;20120;-30
2023/05/07 12:20:07;;;;;;;0.40;0.32;;;;;;;18.37;60.52;96643.66;10375426;28;20112;-29
2023/05/07 12:25:08;;;;;;;0.20;0.20;;;;;;;18.33;57.70;96642.00;10389441;28;20045;-30
2023/05/07 12:30:10;;;;;;;0.38;0.35;;;;;;;18.20;58.23;96643.66;10385705;28;20029;-30
2023/05/07 12:35:10;;;;;;;0.13;0.13;;;;;;;18.15;57.73;96644.50;10386423;28;20026;-31
2023/05/07 12:40:11;;;;;;;0.30;0.30;;;;;;;18.10;57.20;96649.59;10378237;28;20076;-30
2023/05/07 12:45:15;;;;;;;0.20;0.20;;;;;;;18.12;57.02;96652.09;10376476;28;20042;-29
2023/05/07 12:50:16;;;;;;;0.20;0.20;;;;;;;18.13;56.79;96656.31;10384524;28;20044;-29
2023/05/07 12:55:17;;;;;;;0.20;0.20;;;;;;;18.11;56.67;96647.88;10378185;28;20409;-30
2023/05/07 13:00:31;;;;;;;0.40;0.20;;;;;;;18.12;56.63;96647.88;10379187;28;20186;-29
2023/05/07 13:05:32;;;;;;;0.30;0.30;;;;;;;18.12;56.78;96650.41;10375500;28;20053;-31
2023/05/07 13:10:33;;;;;;;0.20;0.20;;;;;;;18.14;56.63;96652.94;10386612;28;20042;-31
2023/05/07 13:15:34;;;;;;;0.55;0.30;;;;;;;18.22;59.12;96657.16;10379310;28;20490;-31
2023/05/07 13:20:34;;;;;;;0.60;0.60;;;;;;;18.38;61.92;96655.50;10375670;28;20121;-30
2023/05/07 13:25:35;;;;;;;3.10;0.70;;;;;;;18.36;59.75;96664.81;10391873;28;20291;-29
2023/05/07 13:30:35;;;;;;;0.83;0.50;;;;;;;18.26;58.37;96693.50;10375610;28;20413;-30
2023/05/07 13:35:38;;;;;;;2.40;0.77;;;;;;;18.18;58.51;96693.47;10382918;28;20038;-30
2023/05/07 13:40:38;;;;;;;1.63;0.63;;;;;;;18.19;57.48;96691.78;10391961;28;20029;-32
2023/05/07 13:45:38;;;;;;;3.90;0.57;;;;;;;18.21;58.21;96690.09;10404895;28;20034;-29
2023/05/07 13:50:39;;;;;;;3.73;0.63;;;;;;;18.18;57.42;96677.44;10386631;28;20041;-29
2023/05/07 13:55:39;;;;;;;2.70;0.68;;;;;;;18.35;59.71;96655.50;10382052;28;20526;-31
2023/05/07 14:00:40;;;;;;;4.93;0.73;;;;;;;18.44;61.14;96650.44;10380316;28;20084;-30
2023/05/07 14:05:41;;;;;;;1.08;0.60;;;;;;;18.32;58.41;96642.84;10382193;28;20533;-29
2023/05/07 14:10:42;;;;;;;9.77;0.90;;;;;;;18.23;58.37;96647.88;10390860;28;20069;-29
2023/05/07 14:15:46;;;;;;;3.60;0.60;;;;;;;18.20;57.64;96647.88;10422502;28;20663;-30
2023/05/07 14:20:48;;;;;;;1.40;0.43;;;;;;;18.19;59.60;96636.91;10406659;28;20316;-30
2023/05/07 14:25:48;;;;;;;6.88;0.80;;;;;;;18.15;57.93;96631.84;10412649;28;20505;-29
2023/05/07 14:30:49;;;;;;;4.57;1.43;;;;;;;18.27;59.97;96634.38;10388517;28;20041;-30
2023/05/07 14:35:51;;;;;;;8.83;1.43;;;;;;;18.43;63.23;96631.81;10402251;28;20037;-30
2023/05/07 14:40:55;;;;;;;9.77;1.02;;;;;;;18.36;58.74;96626.78;10406601;28;20294;-29
2023/05/07 14:45:55;;;;;;;8.68;1.15;;;;;;;18.26;58.28;96632.69;10393630;28;20033;-30
2023/05/07 14:50:56;;;;;;;5.88;1.00;;;;;;;18.24;57.86;96639.44;10391293;28;20500;-32
2023/05/07 14:55:56;;;;;;;8.77;0.93;;;;;;;18.19;57.54;96636.06;10389362;28;20401;-30
2023/05/07 15:00:57;;;;;;;6.47;0.70;;;;;;;18.15;57.50;96634.38;10383349;28;20033;-29
2023/05/07 15:05:57;;;;;;;6.85;0.70;;;;;;;18.13;57.38;96631.84;10378127;28;20125;-28
2023/05/07 15:10:58;;;;;;;10.10;1.10;;;;;;;18.24;60.12;96634.38;10388269;28;20607;-29
2023/05/07 15:15:58;;;;;;;3.55;0.80;;;;;;;18.41;60.16;96637.78;10384416;28;20443;-30
2023/05/07 15:20:59;;;;;;;3.57;0.90;;;;;;;18.42;58.74;96647.06;10378350;28;20033;-30
2023/05/07 15:26:01;;;;;;;1.77;0.30;;;;;;;18.32;57.37;96650.47;10380906;28;20044;-30
2023/05/07 15:31:01;;;;;;;8.23;0.90;;;;;;;18.27;58.93;96659.69;10374032;28;20100;-30
2023/05/07 15:36:03;;;;;;;5.60;1.00;;;;;;;18.25;57.79;96647.03;10393699;28;20418;-29
2023/05/07 15:41:03;;;;;;;1.63;0.65;;;;;;;18.19;57.29;96646.19;10386811;28;20040;-30
2023/05/07 15:46:03;;;;;;;1.70;0.57;;;;;;;18.21;57.47;96654.63;10401828;28;20493;-30
2023/05/07 15:51:05;;;;;;;2.30;1.00;;;;;;;18.22;59.36;96647.03;10396651;28;20626;-30
2023/05/07 15:56:06;;;;;;;4.40;1.30;;;;;;;18.36;61.14;96649.59;10414377;28;20033;-29
2023/05/07 16:01:06;;;;;;;8.45;1.38;;;;;;;18.47;60.04;96650.41;10392835;28;20413;-30
2023/05/07 16:06:06;;;;;;;2.70;0.90;;;;;;;18.35;57.94;96647.91;10399066;28;20037;-29
2023/05/07 16:11:07;;;;;;;6.37;0.80;;;;;;;18.29;57.08;96645.34;10383268;28;20057;-30
2023/05/07 16:16:09;;;;;;;5.27;0.63;;;;;;;18.27;56.30;96652.09;10378265;28;20288;-30
2023/05/07 16:21:09;;;;;;;2.80;0.60;;;;;;;18.25;55.96;96653.81;10409143;28;20060;-30
2023/05/07 16:26:12;;;;;;;10.00;1.47;;;;;;;18.24;55.70;96649.56;10394376;28;20125;-30
2023/05/07 16:31:13;;;;;;;5.07;1.60;;;;;;;18.26;55.60;96658.84;10395203;28;20048;-29
2023/05/07 16:36:13;;;;;;;4.45;1.60;;;;;;;18.27;56.26;96659.69;10407478;28;20539;-30
2023/05/07 16:41:13;;;;;;;21.17;7.00;;;;;;;18.38;59.37;96658.03;10401312;28;20769;-30
2023/05/07 16:46:14;;;;;;;28.23;10.50;;;;;;;18.52;62.66;96658.88;10403275;28;20515;-29
2023/05/07 16:51:14;;;;;;;6.15;2.30;;;;;;;18.43;56.59;96661.44;10382648;28;20489;-29
2023/05/07 16:56:15;;;;;;;11.70;2.53;;;;;;;18.36;56.29;96670.72;10398837;28;20036;-29
2023/05/07 17:01:17;;;;;;;6.72;2.80;;;;;;;18.32;56.42;96675.81;10386867;28;20775;-30
2023/05/07 17:06:18;;;;;;;12.00;2.78;;;;;;;18.29;56.41;96680.81;10406548;28;20506;-30
2023/05/07 17:11:21;;;;;;;8.52;2.33;;;;;;;18.26;56.62;96685.91;10390189;28;20177;-30
2023/05/07 17:16:21;;;;;;;6.53;2.15;;;;;;;18.24;56.34;96701.09;10411254;28;20049;-30
2023/05/07 17:21:22;;;;;;;9.73;3.70;;;;;;;18.24;56.69;96711.22;10394604;28;20045;-29
2023/05/07 17:26:22;;;;;;;15.30;3.28;;;;;;;18.22;56.85;96712.91;10416243;28;20034;-29
2023/05/07 17:31:22;;;;;;;15.83;7.27;;;;;;;18.41;60.10;96718.88;10397523;28;20448;-29
2023/05/07 17:36:23;;;;;;;27.27;11.27;;;;;;;18.55;65.36;96730.72;10394994;28;20381;-30
2023/05/07 17:41:23;;;;;;;8.37;4.03;;;;;;;18.47;59.20;96732.41;10393936;28;20435;-30
2023/05/07 17:46:24;;;;;;;11.90;3.33;;;;;;;18.35;57.80;96739.16;10381610;28;20343;-29
2023/05/07 17:51:24;;;;;;;8.02;3.50;;;;;;;18.30;57.82;96751.81;10373878;28;20140;-29
2023/05/07 17:56:25;;;;;;;9.33;3.40;;;;;;;18.28;57.80;96752.63;10381746;28;20405;-30
2023/05/07 18:01:25;;;;;;;11.23;4.27;;;;;;;18.29;60.19;96755.19;10394831;28;20290;-30
2023/05/07 18:06:26;;;;;;;12.27;3.55;;;;;;;18.25;57.45;96760.22;10416361;28;20552;-29
2023/05/07 18:11:27;;;;;;;10.27;3.40;;;;;;;18.21;57.81;96753.44;10418014;28;20546;-29
2023/05/07 18:16:27;;;;;;;8.85;3.05;;;;;;;18.23;57.62;96766.97;10421695;28;20495;-30
2023/05/07 18:21:28;;;;;;;12.17;3.83;;;;;;;18.24;59.61;96768.69;10418127;28;20044;-31
2023/05/07 18:26:28;;;;;;;15.37;5.23;;;;;;;18.45;64.94;96761.13;10428985;28;20055;-30
2023/05/07 18:31:29;;;;;;;7.47;3.00;;;;;;;18.51;59.75;96767.03;10395254;28;20784;-29
2023/05/07 18:36:29;;;;;;;7.65;2.92;;;;;;;18.40;59.64;96771.25;10381936;28;20034;-30
2023/05/07 18:41:29;;;;;;;6.37;2.77;;;;;;;18.31;57.76;96772.94;10400582;28;20042;-30
2023/05/07 18:46:30;;;;;;;6.97;3.00;;;;;;;18.26;57.78;96774.59;10371156;28;20153;-30
2023/05/07 18:51:30;;;;;;;7.77;2.70;;;;;;;18.23;57.62;96770.34;10385726;28;20792;-31
2023/05/07 18:56:30;;;;;;;8.80;2.30;;;;;;;18.22;57.61;96775.41;10394424;28;20033;-29
2023/05/07 19:01:31;;;;;;;6.63;2.47;;;;;;;18.21;57.44;96778.78;10400405;28;20037;-30
2023/05/07 19:06:31;;;;;;;7.03;2.43;;;;;;;18.19;57.50;96783.88;10394550;28;20038;-29
2023/05/07 19:11:31;;;;;;;4.63;2.27;;;;;;;18.19;57.58;96793.16;10394626;28;20041;-30
2023/05/07 19:16:32;;;;;;;4.13;2.30;;;;;;;18.17;57.60;96794.84;10389932;28;20037;-31
2023/05/07 19:21:32;;;;;;;13.13;3.87;;;;;;;18.37;59.74;96808.44;10394840;28;20106;-30
2023/05/07 19:26:33;;;;;;;7.20;3.00;;;;;;;18.51;64.84;96814.38;10378307;28;20327;-31
2023/05/07 19:31:33;;;;;;;5.50;2.40;;;;;;;18.47;59.23;96825.34;10367485;28;20436;-30
2023/05/07 19:36:33;;;;;;;9.85;2.88;;;;;;;18.33;59.06;96824.50;10382740;28;20508;-29
2023/05/07 19:41:34;;;;;;;9.37;2.80;;;;;;;18.27;57.75;96837.97;10381959;28;20037;-30
2023/05/07 19:46:34;;;;;;;7.07;2.77;;;;;;;18.24;57.61;96839.63;10380125;28;20053;-29
2023/05/07 19:51:35;;;;;;;3.28;2.10;;;;;;;18.20;57.22;96836.25;10406429;28;20332;-29
2023/05/07 19:56:35;;;;;;;5.07;2.40;;;;;;;18.20;57.46;96845.53;10380663;28;20042;-29
2023/05/07 20:01:37;;;;;;;4.57;2.03;;;;;;;18.19;57.58;96846.38;10391131;28;20029;-30
2023/05/07 20:06:38;;;;;;;5.07;2.28;;;;;;;18.17;56.98;96869.16;10387321;28;20315;-30
2023/05/07 20:11:38;;;;;;;5.20;2.30;;;;;;;18.18;57.35;96862.41;10392885;28;20063;-29
2023/05/07 20:16:39;;;;;;;3.95;2.30;;;;;;;18.19;58.92;96871.72;10374680;28;20545;-29
2023/05/07 20:21:39;;;;;;;7.77;3.00;;;;;;;18.39;59.29;96873.50;10377062;28;20044;-30
2023/05/07 20:26:40;;;;;;;5.13;3.35;;;;;;;18.53;63.13;96871.00;10369275;28;20323;-31
2023/05/07 20:31:41;;;;;;;4.43;2.40;;;;;;;18.42;58.99;96882.81;10377442;28;20038;-29
2023/05/07 20:36:41;;;;;;;4.28;2.15;;;;;;;18.33;58.89;96882.78;10386054;28;20046;-30
2023/05/07 20:41:45;;;;;;;3.30;1.70;;;;;;;18.24;57.69;96882.72;10381294;28;20046;-30
2023/05/07 20:46:46;;;;;;;6.78;2.85;;;;;;;18.29;59.61;96886.09;10400188;28;20485;-29
2023/05/07 20:51:47;;;;;;;6.45;2.50;;;;;;;18.23;57.53;96886.06;10391895;28;20045;-29
2023/05/07 20:56:48;;;;;;;3.33;1.90;;;;;;;18.20;57.57;96888.59;10385318;28;20029;-30
2023/05/07 21:01:48;;;;;;;4.73;2.00;;;;;;;18.20;57.51;96898.75;10390551;28;20446;-29
2023/05/07 21:06:49;;;;;;;4.88;1.95;;;;;;;18.18;57.41;96897.91;10414396;28;20042;-29
2023/05/07 21:11:49;;;;;;;2.63;1.60;;;;;;;18.17;57.36;96896.22;10383393;28;20045;-29
2023/05/07 21:16:49;;;;;;;6.50;3.00;;;;;;;18.22;60.99;96908.03;10384361;28;20037;-30
2023/05/07 21:21:50;;;;;;;7.97;2.60;;;;;;;18.41;61.22;96903.94;10407590;28;20729;-30
2023/05/07 21:26:53;;;;;;;4.55;2.20;;;;;;;18.50;60.26;96909.03;10394603;28;20540;-30
2023/05/07 21:31:54;;;;;;;3.92;2.00;;;;;;;18.40;60.12;96915.75;10381917;28;20033;-31
2023/05/07 21:36:54;;;;;;;2.53;1.77;;;;;;;18.31;59.23;96914.84;10398597;28;20048;-30
2023/05/07 21:41:55;;;;;;;2.40;1.60;;;;;;;18.26;58.25;96913.97;10406800;28;20090;-30
2023/05/07 21:46:56;;;;;;;4.00;2.03;;;;;;;18.23;57.84;96924.09;10383592;28;20563;-30
2023/05/07 21:51:56;;;;;;;3.60;1.53;;;;;;;18.18;57.52;96913.94;10409196;28;20041;-30
2023/05/07 21:56:56;;;;;;;4.57;1.80;;;;;;;18.17;57.40;96924.91;10385529;28;20026;-29
2023/05/07 22:01:57;;;;;;;3.73;1.80;;;;;;;18.18;57.41;96928.31;10439206;28;20039;-29
2023/05/07 22:06:57;;;;;;;2.23;1.60;;;;;;;18.17;57.17;96921.53;10399356;28;20038;-29
2023/05/07 22:11:57;;;;;;;4.27;2.00;;;;;;;18.16;57.12;96930.00;10413519;28;20441;-30
2023/05/07 22:16:58;;;;;;;5.43;2.40;;;;;;;18.24;60.93;96924.09;10410057;28;20486;-30
2023/05/07 22:21:58;;;;;;;3.70;2.60;;;;;;;18.44;60.83;96926.75;10437766;28;20063;-30
2023/05/07 22:26:58;;;;;;;6.07;2.43;;;;;;;18.50;59.70;96929.31;10408097;28;20034;-30
2023/05/07 22:31:59;;;;;;;2.20;1.57;;;;;;;18.37;59.56;96930.97;10424603;28;20044;-30
2023/05/07 22:36:59;;;;;;;2.77;1.70;;;;;;;18.29;59.24;96929.19;10400567;28;20037;-30
2023/05/07 22:42:01;;;;;;;6.50;2.13;;;;;;;18.25;58.52;96930.84;10421257;28;20035;-30
2023/05/07 22:47:01;;;;;;;3.55;1.90;;;;;;;18.20;57.81;96924.09;10408951;28;20046;-30
2023/05/07 22:52:02;;;;;;;3.38;1.98;;;;;;;18.19;57.78;96927.47;10407029;28;20379;-29
2023/05/07 22:57:02;;;;;;;4.20;2.17;;;;;;;18.18;57.32;96933.38;10421492;28;20040;-29
2023/05/07 23:02:03;;;;;;;2.92;1.88;;;;;;;18.16;57.17;96925.75;10373943;28;20048;-30
2023/05/07 23:07:04;;;;;;;2.67;2.05;;;;;;;18.15;57.20;96923.22;10391959;28;20044;-30
2023/05/07 23:12:04;;;;;;;3.97;2.05;;;;;;;18.15;57.06;96924.06;10412750;28;20042;-30
2023/05/07 23:17:05;;;;;;;4.57;2.47;;;;;;;18.24;60.56;96925.81;10423775;28;20094;-29
2023/05/07 23:22:05;;;;;;;4.03;2.60;;;;;;;18.43;61.23;96930.94;10433802;28;20435;-30